sensor_id;sensor_type;location;lat;lon;timestamp;P1;durP1;ratioP1;P2;durP2;ratioP2
15635;SDS011;7917;50.818;6.972;2023-02-01T00:00:34;27.85;;;13.27;;
15635;SDS011;7917;50.818;6.972;2023-02-01T00:03:04;31.40;;;13.25;;
15635;SDS011;7917;50.818;6.972;2023-02-01T00:05:37;22.88;;;13.07;;
15635;SDS011;7917;50.818;6.972;2023-02-01T00:08:05;25.80;;;13.27;;
15635;SDS011;7917;50.818;6.972;2023-02-01T00:10:43;23.80;;;12.90;;
15635;SDS011;7917;50.818;6.972;2023-02-01T00:13:28;22.80;;;13.60;;
15635;SDS011;7917;50.818;6.972;2023-02-01T00:16:10;29.90;;;12.60;;
15635;SDS011;7917;50.818;6.972;2023-02-01T00:19:04;28.85;;;12.63;;
15635;SDS011;7917;50.818;6.972;2023-02-01T00:30:41;28.20;;;12.15;;
15635;SDS011;7917;50.818;6.972;2023-02-01T00:33:07;25.08;;;11.82;;
15635;SDS011;7917;50.818;6.972;2023-02-01T00:35:50;22.98;;;10.73;;
15635;SDS011;7917;50.818;6.972;2023-02-01T00:38:58;22.77;;;11.57;;
15635;SDS011;7917;50.818;6.972;2023-02-01T00:42:15;29.98;;;11.20;;
15635;SDS011;7917;50.818;6.972;2023-02-01T00:44:42;27.67;;;10.32;;
15635;SDS011;7917;50.818;6.972;2023-02-01T00:50:15;21.98;;;8.55;;
15635;SDS011;7917;50.818;6.972;2023-02-01T00:53:12;26.17;;;9.48;;
15635;SDS011;7917;50.818;6.972;2023-02-01T00:56:09;18.25;;;7.45;;
15635;SDS011;7917;50.818;6.972;2023-02-01T00:58:45;17.00;;;6.55;;
15635;SDS011;7917;50.818;6.972;2023-02-01T01:01:39;21.60;;;7.28;;
15635;SDS011;7917;50.818;6.972;2023-02-01T01:07:18;24.08;;;6.15;;
15635;SDS011;7917;50.818;6.972;2023-02-01T01:09:53;22.52;;;8.10;;
15635;SDS011;7917;50.818;6.972;2023-02-01T01:12:20;17.50;;;5.20;;
15635;SDS011;7917;50.818;6.972;2023-02-01T01:14:57;14.60;;;5.93;;
15635;SDS011;7917;50.818;6.972;2023-02-01T01:17:23;21.48;;;5.35;;
15635;SDS011;7917;50.818;6.972;2023-02-01T01:22:55;16.08;;;5.00;;
15635;SDS011;7917;50.818;6.972;2023-02-01T01:25:41;16.33;;;4.65;;
15635;SDS011;7917;50.818;6.972;2023-02-01T01:28:43;15.65;;;4.03;;
15635;SDS011;7917;50.818;6.972;2023-02-01T01:31:10;12.57;;;4.93;;
15635;SDS011;7917;50.818;6.972;2023-02-01T01:36:42;14.23;;;4.75;;
15635;SDS011;7917;50.818;6.972;2023-02-01T01:39:09;14.55;;;5.30;;
15635;SDS011;7917;50.818;6.972;2023-02-01T01:45:20;11.32;;;4.05;;
15635;SDS011;7917;50.818;6.972;2023-02-01T01:48:09;16.95;;;4.65;;
15635;SDS011;7917;50.818;6.972;2023-02-01T01:50:42;18.85;;;5.47;;
15635;SDS011;7917;50.818;6.972;2023-02-01T01:53:22;16.60;;;4.40;;
15635;SDS011;7917;50.818;6.972;2023-02-01T01:55:52;16.35;;;4.63;;
15635;SDS011;7917;50.818;6.972;2023-02-01T01:58:22;13.77;;;4.45;;
15635;SDS011;7917;50.818;6.972;2023-02-01T02:01:10;13.18;;;4.63;;
15635;SDS011;7917;50.818;6.972;2023-02-01T02:03:42;19.17;;;4.68;;
15635;SDS011;7917;50.818;6.972;2023-02-01T02:06:26;15.80;;;4.65;;
15635;SDS011;7917;50.818;6.972;2023-02-01T02:09:11;12.70;;;6.72;;
15635;SDS011;7917;50.818;6.972;2023-02-01T02:11:38;18.05;;;5.57;;
15635;SDS011;7917;50.818;6.972;2023-02-01T02:14:56;11.73;;;4.32;;
15635;SDS011;7917;50.818;6.972;2023-02-01T02:17:54;12.77;;;4.82;;
15635;SDS011;7917;50.818;6.972;2023-02-01T02:20:45;9.43;;;5.07;;
15635;SDS011;7917;50.818;6.972;2023-02-01T02:24:06;15.88;;;5.00;;
15635;SDS011;7917;50.818;6.972;2023-02-01T02:27:00;15.30;;;5.75;;
15635;SDS011;7917;50.818;6.972;2023-02-01T02:30:21;13.23;;;4.95;;
15635;SDS011;7917;50.818;6.972;2023-02-01T02:33:37;14.27;;;5.32;;
15635;SDS011;7917;50.818;6.972;2023-02-01T02:36:26;15.82;;;5.93;;
15635;SDS011;7917;50.818;6.972;2023-02-01T02:39:36;17.20;;;5.35;;
15635;SDS011;7917;50.818;6.972;2023-02-01T02:48:42;16.23;;;5.25;;
15635;SDS011;7917;50.818;6.972;2023-02-01T02:51:23;14.23;;;5.90;;
15635;SDS011;7917;50.818;6.972;2023-02-01T02:54:13;21.40;;;5.72;;
15635;SDS011;7917;50.818;6.972;2023-02-01T03:00:24;19.08;;;5.80;;
15635;SDS011;7917;50.818;6.972;2023-02-01T03:03:12;17.70;;;6.88;;
15635;SDS011;7917;50.818;6.972;2023-02-01T03:05:59;15.95;;;5.82;;
15635;SDS011;7917;50.818;6.972;2023-02-01T03:08:49;13.50;;;5.53;;
15635;SDS011;7917;50.818;6.972;2023-02-01T03:14:47;17.95;;;6.28;;
15635;SDS011;7917;50.818;6.972;2023-02-01T03:17:31;21.75;;;6.20;;
15635;SDS011;7917;50.818;6.972;2023-02-01T03:20:05;16.50;;;5.50;;
15635;SDS011;7917;50.818;6.972;2023-02-01T03:22:36;25.52;;;5.60;;
15635;SDS011;7917;50.818;6.972;2023-02-01T03:31:44;17.60;;;5.80;;
15635;SDS011;7917;50.818;6.972;2023-02-01T03:34:19;21.30;;;5.55;;
15635;SDS011;7917;50.818;6.972;2023-02-01T03:36:50;13.88;;;5.30;;
15635;SDS011;7917;50.818;6.972;2023-02-01T03:46:12;19.38;;;5.57;;
15635;SDS011;7917;50.818;6.972;2023-02-01T03:48:54;23.55;;;5.13;;
15635;SDS011;7917;50.818;6.972;2023-02-01T03:51:36;13.80;;;5.15;;
15635;SDS011;7917;50.818;6.972;2023-02-01T03:54:19;10.20;;;4.25;;
15635;SDS011;7917;50.818;6.972;2023-02-01T03:56:55;19.98;;;5.78;;
15635;SDS011;7917;50.818;6.972;2023-02-01T03:59:32;16.77;;;5.20;;
15635;SDS011;7917;50.818;6.972;2023-02-01T04:02:20;15.80;;;4.95;;
15635;SDS011;7917;50.818;6.972;2023-02-01T04:05:16;19.77;;;5.20;;
15635;SDS011;7917;50.818;6.972;2023-02-01T04:11:04;16.92;;;5.00;;
15635;SDS011;7917;50.818;6.972;2023-02-01T04:13:48;19.05;;;5.38;;
15635;SDS011;7917;50.818;6.972;2023-02-01T04:19:36;17.73;;;5.95;;
15635;SDS011;7917;50.818;6.972;2023-02-01T04:25:24;17.60;;;5.68;;
15635;SDS011;7917;50.818;6.972;2023-02-01T04:42:55;27.25;;;6.50;;
15635;SDS011;7917;50.818;6.972;2023-02-01T04:45:22;22.80;;;6.25;;
15635;SDS011;7917;50.818;6.972;2023-02-01T04:47:49;21.85;;;5.78;;
15635;SDS011;7917;50.818;6.972;2023-02-01T04:53:12;21.70;;;6.22;;
15635;SDS011;7917;50.818;6.972;2023-02-01T04:55:39;17.15;;;5.15;;
15635;SDS011;7917;50.818;6.972;2023-02-01T04:58:12;22.38;;;4.95;;
15635;SDS011;7917;50.818;6.972;2023-02-01T05:00:38;15.85;;;5.22;;
15635;SDS011;7917;50.818;6.972;2023-02-01T05:03:05;24.10;;;5.28;;
15635;SDS011;7917;50.818;6.972;2023-02-01T05:08:40;21.05;;;5.25;;
15635;SDS011;7917;50.818;6.972;2023-02-01T05:14:22;18.98;;;4.78;;
15635;SDS011;7917;50.818;6.972;2023-02-01T05:16:57;14.55;;;4.65;;
15635;SDS011;7917;50.818;6.972;2023-02-01T05:19:36;13.05;;;5.00;;
15635;SDS011;7917;50.818;6.972;2023-02-01T05:22:03;14.68;;;4.63;;
15635;SDS011;7917;50.818;6.972;2023-02-01T05:27:34;15.70;;;4.70;;
15635;SDS011;7917;50.818;6.972;2023-02-01T05:33:10;16.27;;;5.28;;
15635;SDS011;7917;50.818;6.972;2023-02-01T05:38:48;17.38;;;4.43;;
15635;SDS011;7917;50.818;6.972;2023-02-01T05:41:43;11.88;;;3.80;;
15635;SDS011;7917;50.818;6.972;2023-02-01T05:44:15;17.35;;;4.07;;
15635;SDS011;7917;50.818;6.972;2023-02-01T05:46:55;17.67;;;4.30;;
15635;SDS011;7917;50.818;6.972;2023-02-01T05:49:46;15.15;;;3.75;;
15635;SDS011;7917;50.818;6.972;2023-02-01T05:52:38;11.10;;;3.70;;
15635;SDS011;7917;50.818;6.972;2023-02-01T06:06:56;16.60;;;3.50;;
15635;SDS011;7917;50.818;6.972;2023-02-01T06:07:57;11.77;;;3.10;;
15635;SDS011;7917;50.818;6.972;2023-02-01T06:14:16;13.38;;;3.38;;
15635;SDS011;7917;50.818;6.972;2023-02-01T06:16:59;13.00;;;2.85;;
15635;SDS011;7917;50.818;6.972;2023-02-01T06:19:26;19.35;;;3.72;;
15635;SDS011;7917;50.818;6.972;2023-02-01T06:27:37;12.23;;;3.47;;
15635;SDS011;7917;50.818;6.972;2023-02-01T06:30:07;14.35;;;4.13;;
15635;SDS011;7917;50.818;6.972;2023-02-01T06:32:51;15.40;;;4.30;;
15635;SDS011;7917;50.818;6.972;2023-02-01T06:38:47;12.93;;;3.60;;
15635;SDS011;7917;50.818;6.972;2023-02-01T06:41:35;18.60;;;3.63;;
15635;SDS011;7917;50.818;6.972;2023-02-01T06:48:04;13.82;;;3.75;;
15635;SDS011;7917;50.818;6.972;2023-02-01T06:56:58;9.43;;;3.65;;
15635;SDS011;7917;50.818;6.972;2023-02-01T07:09:22;19.98;;;3.80;;
15635;SDS011;7917;50.818;6.972;2023-02-01T07:11:49;13.77;;;3.55;;
15635;SDS011;7917;50.818;6.972;2023-02-01T07:18:54;14.15;;;4.20;;
15635;SDS011;7917;50.818;6.972;2023-02-01T07:26:59;10.88;;;4.50;;
15635;SDS011;7917;50.818;6.972;2023-02-01T07:29:28;15.27;;;3.47;;
15635;SDS011;7917;50.818;6.972;2023-02-01T07:32:13;17.23;;;3.45;;
15635;SDS011;7917;50.818;6.972;2023-02-01T07:43:53;15.95;;;3.88;;
15635;SDS011;7917;50.818;6.972;2023-02-01T07:46:25;12.43;;;4.95;;
15635;SDS011;7917;50.818;6.972;2023-02-01T07:52:27;14.20;;;4.60;;
15635;SDS011;7917;50.818;6.972;2023-02-01T07:54:54;19.05;;;3.90;;
15635;SDS011;7917;50.818;6.972;2023-02-01T07:57:21;22.23;;;4.45;;
15635;SDS011;7917;50.818;6.972;2023-02-01T07:59:48;17.50;;;3.85;;
15635;SDS011;7917;50.818;6.972;2023-02-01T08:02:33;13.73;;;3.90;;
15635;SDS011;7917;50.818;6.972;2023-02-01T08:05:00;20.10;;;4.40;;
15635;SDS011;7917;50.818;6.972;2023-02-01T08:07:30;18.48;;;4.05;;
15635;SDS011;7917;50.818;6.972;2023-02-01T08:09:57;13.80;;;4.25;;
15635;SDS011;7917;50.818;6.972;2023-02-01T08:12:25;16.70;;;3.72;;
15635;SDS011;7917;50.818;6.972;2023-02-01T08:14:52;19.88;;;4.82;;
15635;SDS011;7917;50.818;6.972;2023-02-01T08:17:21;21.33;;;4.28;;
15635;SDS011;7917;50.818;6.972;2023-02-01T08:19:48;16.42;;;5.00;;
15635;SDS011;7917;50.818;6.972;2023-02-01T08:22:14;16.38;;;4.43;;
15635;SDS011;7917;50.818;6.972;2023-02-01T08:24:41;18.75;;;4.88;;
15635;SDS011;7917;50.818;6.972;2023-02-01T08:27:08;20.05;;;3.92;;
15635;SDS011;7917;50.818;6.972;2023-02-01T08:29:35;17.35;;;3.60;;
15635;SDS011;7917;50.818;6.972;2023-02-01T08:32:03;15.88;;;4.43;;
15635;SDS011;7917;50.818;6.972;2023-02-01T08:34:30;16.27;;;4.05;;
15635;SDS011;7917;50.818;6.972;2023-02-01T08:36:56;15.73;;;3.63;;
15635;SDS011;7917;50.818;6.972;2023-02-01T08:39:23;13.95;;;3.25;;
15635;SDS011;7917;50.818;6.972;2023-02-01T08:41:50;11.52;;;4.35;;
15635;SDS011;7917;50.818;6.972;2023-02-01T08:44:31;19.40;;;3.97;;
15635;SDS011;7917;50.818;6.972;2023-02-01T08:46:58;10.52;;;3.63;;
15635;SDS011;7917;50.818;6.972;2023-02-01T08:49:26;15.13;;;3.50;;
15635;SDS011;7917;50.818;6.972;2023-02-01T08:51:53;19.83;;;3.70;;
15635;SDS011;7917;50.818;6.972;2023-02-01T08:54:20;20.55;;;3.70;;
15635;SDS011;7917;50.818;6.972;2023-02-01T08:56:47;19.63;;;3.95;;
15635;SDS011;7917;50.818;6.972;2023-02-01T08:59:14;14.15;;;3.55;;
15635;SDS011;7917;50.818;6.972;2023-02-01T09:01:41;11.93;;;3.42;;
15635;SDS011;7917;50.818;6.972;2023-02-01T09:04:07;14.52;;;3.63;;
15635;SDS011;7917;50.818;6.972;2023-02-01T09:06:35;16.15;;;3.17;;
15635;SDS011;7917;50.818;6.972;2023-02-01T09:09:02;14.65;;;3.10;;
15635;SDS011;7917;50.818;6.972;2023-02-01T09:11:30;14.63;;;3.20;;
15635;SDS011;7917;50.818;6.972;2023-02-01T09:13:57;14.30;;;3.83;;
15635;SDS011;7917;50.818;6.972;2023-02-01T09:16:24;12.40;;;2.92;;
15635;SDS011;7917;50.818;6.972;2023-02-01T09:18:51;16.65;;;3.85;;
15635;SDS011;7917;50.818;6.972;2023-02-01T09:21:17;19.58;;;3.25;;
15635;SDS011;7917;50.818;6.972;2023-02-01T09:23:59;17.08;;;3.88;;
15635;SDS011;7917;50.818;6.972;2023-02-01T09:26:34;10.65;;;3.35;;
15635;SDS011;7917;50.818;6.972;2023-02-01T09:29:06;12.32;;;3.28;;
15635;SDS011;7917;50.818;6.972;2023-02-01T09:31:48;12.30;;;2.67;;
15635;SDS011;7917;50.818;6.972;2023-02-01T09:34:18;20.05;;;3.90;;
15635;SDS011;7917;50.818;6.972;2023-02-01T09:36:50;14.05;;;4.40;;
15635;SDS011;7917;50.818;6.972;2023-02-01T09:39:38;25.30;;;4.43;;
15635;SDS011;7917;50.818;6.972;2023-02-01T09:42:12;14.82;;;3.47;;
15635;SDS011;7917;50.818;6.972;2023-02-01T09:48:38;12.38;;;3.70;;
15635;SDS011;7917;50.818;6.972;2023-02-01T09:51:33;16.70;;;3.95;;
15635;SDS011;7917;50.818;6.972;2023-02-01T09:54:10;16.13;;;3.95;;
15635;SDS011;7917;50.818;6.972;2023-02-01T09:57:21;14.30;;;4.18;;
15635;SDS011;7917;50.818;6.972;2023-02-01T10:03:10;13.00;;;4.35;;
15635;SDS011;7917;50.818;6.972;2023-02-01T10:05:44;13.15;;;3.58;;
15635;SDS011;7917;50.818;6.972;2023-02-01T10:08:35;11.70;;;3.78;;
15635;SDS011;7917;50.818;6.972;2023-02-01T10:11:38;17.23;;;3.38;;
15635;SDS011;7917;50.818;6.972;2023-02-01T10:14:48;14.27;;;4.20;;
15635;SDS011;7917;50.818;6.972;2023-02-01T10:24:02;9.05;;;3.42;;
15635;SDS011;7917;50.818;6.972;2023-02-01T10:33:14;19.65;;;3.28;;
15635;SDS011;7917;50.818;6.972;2023-02-01T10:35:45;14.02;;;3.67;;
15635;SDS011;7917;50.818;6.972;2023-02-01T10:38:24;16.42;;;3.95;;
15635;SDS011;7917;50.818;6.972;2023-02-01T10:40:58;19.58;;;4.10;;
15635;SDS011;7917;50.818;6.972;2023-02-01T10:44:15;18.50;;;3.90;;
15635;SDS011;7917;50.818;6.972;2023-02-01T10:47:19;16.42;;;3.88;;
15635;SDS011;7917;50.818;6.972;2023-02-01T10:53:22;14.05;;;4.07;;
15635;SDS011;7917;50.818;6.972;2023-02-01T10:56:43;14.40;;;3.28;;
15635;SDS011;7917;50.818;6.972;2023-02-01T10:59:23;13.05;;;5.50;;
15635;SDS011;7917;50.818;6.972;2023-02-01T11:05:05;9.25;;;3.30;;
15635;SDS011;7917;50.818;6.972;2023-02-01T11:07:35;21.20;;;3.75;;
15635;SDS011;7917;50.818;6.972;2023-02-01T11:10:04;9.88;;;3.92;;
15635;SDS011;7917;50.818;6.972;2023-02-01T11:12:32;11.32;;;4.82;;
15635;SDS011;7917;50.818;6.972;2023-02-01T11:15:15;14.73;;;3.42;;
15635;SDS011;7917;50.818;6.972;2023-02-01T11:17:49;14.52;;;3.45;;
15635;SDS011;7917;50.818;6.972;2023-02-01T11:20:18;12.38;;;4.35;;
15635;SDS011;7917;50.818;6.972;2023-02-01T11:23:02;17.27;;;3.35;;
15635;SDS011;7917;50.818;6.972;2023-02-01T11:29:28;13.20;;;3.55;;
15635;SDS011;7917;50.818;6.972;2023-02-01T11:32:04;15.77;;;3.22;;
15635;SDS011;7917;50.818;6.972;2023-02-01T11:35:20;12.40;;;3.65;;
15635;SDS011;7917;50.818;6.972;2023-02-01T11:38:09;19.00;;;3.50;;
15635;SDS011;7917;50.818;6.972;2023-02-01T11:43:53;13.52;;;2.83;;
15635;SDS011;7917;50.818;6.972;2023-02-01T11:46:24;9.10;;;3.90;;
15635;SDS011;7917;50.818;6.972;2023-02-01T11:58:02;17.38;;;3.05;;
15635;SDS011;7917;50.818;6.972;2023-02-01T12:07:20;11.88;;;3.63;;
15635;SDS011;7917;50.818;6.972;2023-02-01T12:10:30;8.63;;;3.35;;
15635;SDS011;7917;50.818;6.972;2023-02-01T12:13:44;10.70;;;3.67;;
15635;SDS011;7917;50.818;6.972;2023-02-01T12:16:23;12.35;;;3.70;;
15635;SDS011;7917;50.818;6.972;2023-02-01T12:19:14;10.93;;;2.90;;
15635;SDS011;7917;50.818;6.972;2023-02-01T12:29:21;12.02;;;3.28;;
15635;SDS011;7917;50.818;6.972;2023-02-01T12:35:57;18.30;;;3.63;;
15635;SDS011;7917;50.818;6.972;2023-02-01T12:44:38;15.30;;;3.20;;
15635;SDS011;7917;50.818;6.972;2023-02-01T12:47:41;8.52;;;2.55;;
15635;SDS011;7917;50.818;6.972;2023-02-01T12:50:26;10.75;;;3.20;;
15635;SDS011;7917;50.818;6.972;2023-02-01T12:52:58;7.97;;;3.05;;
15635;SDS011;7917;50.818;6.972;2023-02-01T12:55:34;19.02;;;3.50;;
15635;SDS011;7917;50.818;6.972;2023-02-01T13:01:20;9.75;;;2.63;;
15635;SDS011;7917;50.818;6.972;2023-02-01T13:04:10;9.45;;;3.10;;
15635;SDS011;7917;50.818;6.972;2023-02-01T13:06:41;13.65;;;2.80;;
15635;SDS011;7917;50.818;6.972;2023-02-01T13:09:19;17.35;;;3.20;;
15635;SDS011;7917;50.818;6.972;2023-02-01T13:12:11;12.07;;;3.47;;
15635;SDS011;7917;50.818;6.972;2023-02-01T13:14:58;8.63;;;3.10;;
15635;SDS011;7917;50.818;6.972;2023-02-01T13:22:05;14.02;;;3.72;;
15635;SDS011;7917;50.818;6.972;2023-02-01T13:24:49;9.75;;;2.75;;
15635;SDS011;7917;50.818;6.972;2023-02-01T13:30:48;11.85;;;3.20;;
15635;SDS011;7917;50.818;6.972;2023-02-01T13:44:19;12.00;;;4.28;;
15635;SDS011;7917;50.818;6.972;2023-02-01T13:47:32;16.13;;;4.03;;
15635;SDS011;7917;50.818;6.972;2023-02-01T13:50:02;11.38;;;3.40;;
15635;SDS011;7917;50.818;6.972;2023-02-01T13:52:45;15.18;;;3.65;;
15635;SDS011;7917;50.818;6.972;2023-02-01T13:58:32;11.07;;;2.80;;
15635;SDS011;7917;50.818;6.972;2023-02-01T14:07:19;16.83;;;3.47;;
15635;SDS011;7917;50.818;6.972;2023-02-01T14:10:46;8.50;;;3.20;;
15635;SDS011;7917;50.818;6.972;2023-02-01T14:16:11;9.07;;;2.90;;
15635;SDS011;7917;50.818;6.972;2023-02-01T14:18:56;10.73;;;3.08;;
15635;SDS011;7917;50.818;6.972;2023-02-01T14:27:45;16.25;;;4.30;;
15635;SDS011;7917;50.818;6.972;2023-02-01T14:30:24;15.57;;;3.25;;
15635;SDS011;7917;50.818;6.972;2023-02-01T14:36:19;13.55;;;3.40;;
15635;SDS011;7917;50.818;6.972;2023-02-01T14:41:52;10.85;;;3.15;;
15635;SDS011;7917;50.818;6.972;2023-02-01T14:50:54;8.80;;;2.90;;
15635;SDS011;7917;50.818;6.972;2023-02-01T15:10:19;9.15;;;2.40;;
15635;SDS011;7917;50.818;6.972;2023-02-01T15:12:51;14.82;;;2.63;;
15635;SDS011;7917;50.818;6.972;2023-02-01T15:18:52;13.55;;;3.10;;
15635;SDS011;7917;50.818;6.972;2023-02-01T15:24:51;11.10;;;2.97;;
15635;SDS011;7917;50.818;6.972;2023-02-01T15:27:19;7.80;;;2.10;;
15635;SDS011;7917;50.818;6.972;2023-02-01T15:33:04;13.10;;;2.72;;
15635;SDS011;7917;50.818;6.972;2023-02-01T15:35:37;8.05;;;2.42;;
15635;SDS011;7917;50.818;6.972;2023-02-01T15:51:22;7.78;;;2.60;;
15635;SDS011;7917;50.818;6.972;2023-02-01T15:56:49;9.82;;;2.15;;
15635;SDS011;7917;50.818;6.972;2023-02-01T15:59:47;6.30;;;2.25;;
15635;SDS011;7917;50.818;6.972;2023-02-01T16:05:30;9.85;;;2.58;;
15635;SDS011;7917;50.818;6.972;2023-02-01T16:08:00;13.80;;;2.45;;
15635;SDS011;7917;50.818;6.972;2023-02-01T16:10:39;12.20;;;2.35;;
15635;SDS011;7917;50.818;6.972;2023-02-01T16:13:29;13.32;;;2.65;;
15635;SDS011;7917;50.818;6.972;2023-02-01T16:19:07;5.72;;;2.13;;
15635;SDS011;7917;50.818;6.972;2023-02-01T16:21:54;7.85;;;2.47;;
15635;SDS011;7917;50.818;6.972;2023-02-01T16:24:54;12.55;;;2.58;;
15635;SDS011;7917;50.818;6.972;2023-02-01T16:30:09;10.75;;;2.35;;
15635;SDS011;7917;50.818;6.972;2023-02-01T16:35:50;7.65;;;2.78;;
15635;SDS011;7917;50.818;6.972;2023-02-01T16:38:26;7.68;;;2.70;;
15635;SDS011;7917;50.818;6.972;2023-02-01T16:40:53;14.70;;;4.88;;
15635;SDS011;7917;50.818;6.972;2023-02-01T16:43:23;10.63;;;2.45;;
15635;SDS011;7917;50.818;6.972;2023-02-01T16:45:52;11.00;;;3.47;;
15635;SDS011;7917;50.818;6.972;2023-02-01T16:48:26;24.50;;;4.50;;
15635;SDS011;7917;50.818;6.972;2023-02-01T16:54:57;10.77;;;3.10;;
15635;SDS011;7917;50.818;6.972;2023-02-01T17:00:36;8.63;;;3.47;;
15635;SDS011;7917;50.818;6.972;2023-02-01T17:03:05;15.38;;;3.25;;
15635;SDS011;7917;50.818;6.972;2023-02-01T17:08:22;14.40;;;3.60;;
15635;SDS011;7917;50.818;6.972;2023-02-01T17:11:32;13.00;;;3.67;;
15635;SDS011;7917;50.818;6.972;2023-02-01T17:21:20;16.60;;;3.40;;
15635;SDS011;7917;50.818;6.972;2023-02-01T17:23:52;15.60;;;3.95;;
15635;SDS011;7917;50.818;6.972;2023-02-01T17:26:19;8.70;;;3.60;;
15635;SDS011;7917;50.818;6.972;2023-02-01T17:38:25;18.85;;;4.38;;
15635;SDS011;7917;50.818;6.972;2023-02-01T17:43:55;15.23;;;4.53;;
15635;SDS011;7917;50.818;6.972;2023-02-01T17:46:23;11.48;;;3.70;;
15635;SDS011;7917;50.818;6.972;2023-02-01T17:48:55;15.15;;;3.55;;
15635;SDS011;7917;50.818;6.972;2023-02-01T17:51:30;10.77;;;4.68;;
15635;SDS011;7917;50.818;6.972;2023-02-01T17:56:53;15.45;;;4.18;;
15635;SDS011;7917;50.818;6.972;2023-02-01T18:02:28;15.85;;;4.07;;
15635;SDS011;7917;50.818;6.972;2023-02-01T18:04:58;13.13;;;3.88;;
15635;SDS011;7917;50.818;6.972;2023-02-01T18:08:06;11.82;;;3.83;;
15635;SDS011;7917;50.818;6.972;2023-02-01T18:10:33;10.45;;;4.53;;
15635;SDS011;7917;50.818;6.972;2023-02-01T18:13:48;16.75;;;4.82;;
15635;SDS011;7917;50.818;6.972;2023-02-01T18:16:34;16.67;;;3.92;;
15635;SDS011;7917;50.818;6.972;2023-02-01T18:19:02;19.27;;;4.40;;
15635;SDS011;7917;50.818;6.972;2023-02-01T18:24:41;12.35;;;4.25;;
15635;SDS011;7917;50.818;6.972;2023-02-01T18:27:08;10.02;;;2.97;;
15635;SDS011;7917;50.818;6.972;2023-02-01T18:30:15;22.52;;;4.55;;
15635;SDS011;7917;50.818;6.972;2023-02-01T18:32:45;17.40;;;4.25;;
15635;SDS011;7917;50.818;6.972;2023-02-01T18:35:25;16.80;;;4.03;;
15635;SDS011;7917;50.818;6.972;2023-02-01T18:38:17;13.02;;;4.80;;
15635;SDS011;7917;50.818;6.972;2023-02-01T18:40:47;18.27;;;4.20;;
15635;SDS011;7917;50.818;6.972;2023-02-01T18:43:15;13.32;;;4.63;;
15635;SDS011;7917;50.818;6.972;2023-02-01T18:46:00;11.32;;;3.97;;
15635;SDS011;7917;50.818;6.972;2023-02-01T18:48:45;13.40;;;5.22;;
15635;SDS011;7917;50.818;6.972;2023-02-01T18:51:15;12.77;;;3.75;;
15635;SDS011;7917;50.818;6.972;2023-02-01T18:54:24;13.25;;;5.95;;
15635;SDS011;7917;50.818;6.972;2023-02-01T18:56:53;13.82;;;4.03;;
15635;SDS011;7917;50.818;6.972;2023-02-01T18:59:20;18.80;;;4.78;;
15635;SDS011;7917;50.818;6.972;2023-02-01T19:02:27;12.70;;;4.90;;
15635;SDS011;7917;50.818;6.972;2023-02-01T19:04:55;15.00;;;4.38;;
15635;SDS011;7917;50.818;6.972;2023-02-01T19:07:22;11.88;;;4.30;;
15635;SDS011;7917;50.818;6.972;2023-02-01T19:09:52;8.80;;;3.50;;
15635;SDS011;7917;50.818;6.972;2023-02-01T19:12:47;13.93;;;4.65;;
15635;SDS011;7917;50.818;6.972;2023-02-01T19:15:15;14.82;;;4.43;;
15635;SDS011;7917;50.818;6.972;2023-02-01T19:21:14;13.18;;;4.10;;
15635;SDS011;7917;50.818;6.972;2023-02-01T19:24:12;15.40;;;4.18;;
15635;SDS011;7917;50.818;6.972;2023-02-01T19:26:54;14.85;;;4.05;;
15635;SDS011;7917;50.818;6.972;2023-02-01T19:29:22;11.48;;;3.83;;
15635;SDS011;7917;50.818;6.972;2023-02-01T19:32:04;20.30;;;5.50;;
15635;SDS011;7917;50.818;6.972;2023-02-01T19:34:40;13.38;;;4.18;;
15635;SDS011;7917;50.818;6.972;2023-02-01T19:37:07;14.38;;;4.18;;
15635;SDS011;7917;50.818;6.972;2023-02-01T19:39:34;16.85;;;4.05;;
15635;SDS011;7917;50.818;6.972;2023-02-01T19:45:13;18.77;;;4.70;;
15635;SDS011;7917;50.818;6.972;2023-02-01T19:47:58;11.93;;;3.67;;
15635;SDS011;7917;50.818;6.972;2023-02-01T19:50:49;8.77;;;3.50;;
15635;SDS011;7917;50.818;6.972;2023-02-01T19:53:16;12.88;;;3.67;;
15635;SDS011;7917;50.818;6.972;2023-02-01T19:59:10;9.45;;;3.72;;
15635;SDS011;7917;50.818;6.972;2023-02-01T20:05:03;13.52;;;3.88;;
15635;SDS011;7917;50.818;6.972;2023-02-01T20:07:30;14.25;;;4.25;;
15635;SDS011;7917;50.818;6.972;2023-02-01T20:09:56;12.40;;;3.85;;
15635;SDS011;7917;50.818;6.972;2023-02-01T20:12:54;10.85;;;3.55;;
15635;SDS011;7917;50.818;6.972;2023-02-01T20:15:21;18.45;;;3.90;;
15635;SDS011;7917;50.818;6.972;2023-02-01T20:17:52;11.63;;;3.70;;
15635;SDS011;7917;50.818;6.972;2023-02-01T20:23:26;14.55;;;4.35;;
15635;SDS011;7917;50.818;6.972;2023-02-01T20:25:59;16.50;;;3.95;;
15635;SDS011;7917;50.818;6.972;2023-02-01T20:28:29;10.70;;;3.42;;
15635;SDS011;7917;50.818;6.972;2023-02-01T20:31:21;16.20;;;4.05;;
15635;SDS011;7917;50.818;6.972;2023-02-01T20:33:50;16.20;;;4.93;;
15635;SDS011;7917;50.818;6.972;2023-02-01T20:36:17;11.57;;;4.40;;
15635;SDS011;7917;50.818;6.972;2023-02-01T20:38:47;14.30;;;3.65;;
15635;SDS011;7917;50.818;6.972;2023-02-01T20:41:33;18.48;;;4.13;;
15635;SDS011;7917;50.818;6.972;2023-02-01T20:44:12;15.05;;;4.45;;
15635;SDS011;7917;50.818;6.972;2023-02-01T20:46:39;12.23;;;3.88;;
15635;SDS011;7917;50.818;6.972;2023-02-01T20:49:15;13.52;;;4.70;;
15635;SDS011;7917;50.818;6.972;2023-02-01T20:51:42;14.70;;;3.67;;
15635;SDS011;7917;50.818;6.972;2023-02-01T20:54:10;13.27;;;3.83;;
15635;SDS011;7917;50.818;6.972;2023-02-01T20:56:37;9.27;;;3.60;;
15635;SDS011;7917;50.818;6.972;2023-02-01T20:59:15;16.08;;;4.75;;
15635;SDS011;7917;50.818;6.972;2023-02-01T21:01:42;16.60;;;4.25;;
15635;SDS011;7917;50.818;6.972;2023-02-01T21:04:17;14.93;;;4.15;;
15635;SDS011;7917;50.818;6.972;2023-02-01T21:06:48;16.35;;;4.10;;
15635;SDS011;7917;50.818;6.972;2023-02-01T21:09:34;10.98;;;3.83;;
15635;SDS011;7917;50.818;6.972;2023-02-01T21:12:00;12.52;;;3.83;;
15635;SDS011;7917;50.818;6.972;2023-02-01T21:14:27;22.67;;;4.25;;
15635;SDS011;7917;50.818;6.972;2023-02-01T21:16:57;12.82;;;3.83;;
15635;SDS011;7917;50.818;6.972;2023-02-01T21:19:24;19.42;;;4.93;;
15635;SDS011;7917;50.818;6.972;2023-02-01T21:21:51;12.43;;;4.65;;
15635;SDS011;7917;50.818;6.972;2023-02-01T21:24:19;13.23;;;3.28;;
15635;SDS011;7917;50.818;6.972;2023-02-01T21:26:48;15.57;;;3.75;;
15635;SDS011;7917;50.818;6.972;2023-02-01T21:29:15;21.38;;;4.10;;
15635;SDS011;7917;50.818;6.972;2023-02-01T21:31:54;15.95;;;4.15;;
15635;SDS011;7917;50.818;6.972;2023-02-01T21:34:29;16.25;;;3.85;;
15635;SDS011;7917;50.818;6.972;2023-02-01T21:36:57;12.43;;;4.22;;
15635;SDS011;7917;50.818;6.972;2023-02-01T21:39:24;17.65;;;5.82;;
15635;SDS011;7917;50.818;6.972;2023-02-01T21:42:00;14.98;;;4.32;;
15635;SDS011;7917;50.818;6.972;2023-02-01T21:44:39;20.63;;;4.68;;
15635;SDS011;7917;50.818;6.972;2023-02-01T21:47:05;17.80;;;5.50;;
15635;SDS011;7917;50.818;6.972;2023-02-01T21:49:36;14.48;;;4.68;;
15635;SDS011;7917;50.818;6.972;2023-02-01T21:52:04;15.80;;;4.90;;
15635;SDS011;7917;50.818;6.972;2023-02-01T21:54:31;17.27;;;4.97;;
15635;SDS011;7917;50.818;6.972;2023-02-01T21:57:16;13.93;;;4.75;;
15635;SDS011;7917;50.818;6.972;2023-02-01T21:59:45;17.23;;;5.47;;
15635;SDS011;7917;50.818;6.972;2023-02-01T22:02:12;23.75;;;7.47;;
15635;SDS011;7917;50.818;6.972;2023-02-01T22:04:40;17.85;;;5.00;;
15635;SDS011;7917;50.818;6.972;2023-02-01T22:07:08;16.30;;;5.65;;
15635;SDS011;7917;50.818;6.972;2023-02-01T22:09:35;20.50;;;5.43;;
15635;SDS011;7917;50.818;6.972;2023-02-01T22:12:02;24.55;;;5.82;;
15635;SDS011;7917;50.818;6.972;2023-02-01T22:17:52;17.40;;;5.18;;
15635;SDS011;7917;50.818;6.972;2023-02-01T22:20:34;17.67;;;5.72;;
15635;SDS011;7917;50.818;6.972;2023-02-01T22:23:01;22.55;;;5.30;;